Maribel — LAGU6 — position and weather

sailwx.info

Track history (hours):
 
Tides and Currents Weather Stations Pressure Air Temp Water Temp Dewpoint Dewpoint Depression Visibility Wind Speed Wind Dir Waves Ship Positions

Maribel

Last reported at 2015-May-13 04:12 UTC. Time now 2015-May-22 22:16 UTC.
Position N 28°28' W 014°53'.
Warning: this ship's position is 9 days out of date.

Length 227 m; draft 12.9 m.

Type: Tanker. MMSI: 257872000.

Date/timePositionNaut miles runAvg speedWind from/ knotsBaromVisibWave heightAir tempDewpointWater temp
2015-May-13 04:12N 28°28' W 014°53'913.7
2015-May-13 03:33N 28°36' W 014°51'1613.7
2015-May-13 02:22N 28°52' W 014°47'1113.4
2015-May-13 01:32N 29°03' W 014°43'1313.2
2015-May-13 00:33N 29°16' W 014°40'1413.0
2015-May-12 23:31N 29°29' W 014°36'1313.2
2015-May-12 22:33N 29°41' W 014°33'1513.1
2015-May-12 21:26N 29°56' W 014°29'1513.3
2015-May-12 20:20N 30°10' W 014°25'1013.2
2015-May-12 19:33N 30°20' W 014°23'1413.0
2015-May-12 18:30N 30°33' W 014°19'1313.3
2015-May-12 17:33N 30°46' W 014°15'1313.1
2015-May-12 16:33N 30°58' W 014°12'1313.2
2015-May-12 15:33N 31°11' W 014°08'1313.4
2015-May-12 14:33N 31°24' W 014°05'1313.4
2015-May-12 13:33N 31°37' W 014°01'1313.4
2015-May-12 12:33N 31°50' W 013°57'1313.5
2015-May-12 11:33N 32°03' W 013°54'1513.8
2015-May-12 10:27N 32°18' W 013°50'1213.6
2015-May-12 09:33N 32°30' W 013°46'1313.1
2015-May-12 08:33N 32°43' W 013°43'1513.2
2015-May-12 07:26N 32°57' W 013°38'1213.1
2015-May-12 06:33N 33°08' W 013°35'1313.1
2015-May-12 05:33N 33°21' W 013°32'1313.0
2015-May-12 04:33N 33°34' W 013°28'1313.0
2015-May-12 03:33N 33°46' W 013°24'1313.2
2015-May-12 02:32N 33°59' W 013°21'1313.2
2015-May-12 01:33N 34°12' W 013°17'1312.9
2015-May-12 00:33N 34°25' W 013°13'1312.8
2015-May-11 23:32N 34°37' W 013°10'1713.0
2015-May-11 22:13N 34°54' W 013°05'913.0
2015-May-11 21:31N 35°03' W 013°02'1212.7
2015-May-11 20:33N 35°15' W 012°59'1313.0
2015-May-11 19:33N 35°27' W 012°55'3812.8
2015-May-11 16:33N 36°05' W 012°44'1413.2
2015-May-11 15:31N 36°18' W 012°40'1313.4
2015-May-11 14:33N 36°31' W 012°37'1313.3
2015-May-11 13:33N 36°44' W 012°33'60 8.6
2015-May-11 06:33N 37°42' W 012°15'1212.3
2015-May-11 05:33N 37°54' W 012°12'1312.6
2015-May-11 04:32N 38°07' W 012°08'1313.1
2015-May-11 03:33N 38°19' W 012°04'1313.1
2015-May-11 02:33N 38°32' W 012°00'1313.3
2015-May-11 01:33N 38°45' W 011°56'1313.0
2015-May-11 00:33N 38°58' W 011°52'1513.5
2015-May-10 23:26N 39°12' W 011°48'1213.5
2015-May-10 22:33N 39°24' W 011°44'1313.0
2015-May-10 21:33N 39°36' W 011°40'1312.7
2015-May-10 20:33N 39°49' W 011°36'54912.3
2015-May-09 00:04N 48°10' W 006°25'17511.7
2015-May-08 09:09N 49°59' W 002°57'711.6
2015-May-08 08:33N 50°01' W 002°46'2512.5
2015-May-08 06:33N 50°08' W 002°09'3215.3
2015-May-08 04:28N 50°16' W 001°21'1516.2
2015-May-08 03:33N 50°20' W 000°58'1514.7
2015-May-08 02:32N 50°24' W 000°35'2712.9
2015-May-08 00:26N 50°31' E 000°06'1011.2
2015-May-07 23:34N 50°34' E 000°20'1110.6
2015-May-07 22:33N 50°37' E 000°36'1211.9
2015-May-07 21:33N 50°44' E 000°51'1413.4
2015-May-07 20:33N 50°53' E 001°08'1414.0
2015-May-07 19:33N 51°02' E 001°24'1313.1
2015-May-07 18:33N 51°11' E 001°40'1111.5
2015-May-07 17:33N 51°19' E 001°52'9 8.8
2015-May-07 16:33N 51°25' E 002°02'1111.2
2015-May-07 15:33N 51°20' E 002°18'10 9.8
2015-May-07 14:33N 51°23' E 002°34'9 9.2
2015-May-07 13:33N 51°22' E 002°48'1111.0
2015-May-07 12:33N 51°24' E 003°05'1111.1
2015-May-07 11:33N 51°25' E 003°23'9 9.1
2015-May-07 10:33N 51°26' E 003°38'1110.6
2015-May-07 09:33N 51°21' E 003°52'8 7.8
2015-May-07 08:33N 51°22' E 004°05'8 7.9
2015-May-07 07:33N 51°21' E 004°17'0 0.1
2015-May-07 06:32N 51°21' E 004°17'0 0.4
2015-May-07 05:32N 51°21' E 004°18'5 4.5
2015-May-07 04:31N 51°16' E 004°21'0 0.0
2015-May-07 03:33N 51°16' E 004°21'0 0.0
2015-May-07 02:33N 51°16' E 004°21'0 0.0
2015-May-07 01:26N 51°16' E 004°21'0 0.0
2015-May-07 00:32N 51°16' E 004°21'0 0.0
2015-May-06 23:32N 51°16' E 004°21'0 0.0
2015-May-06 22:31N 51°16' E 004°21'0 0.0
2015-May-06 21:31N 51°16' E 004°21'0 0.0
2015-May-06 20:30N 51°16' E 004°21'0 0.0
2015-May-06 19:27N 51°16' E 004°21'0 0.0
2015-May-06 18:32N 51°16' E 004°21'0 0.0
2015-May-06 17:32N 51°16' E 004°21'0 0.0
2015-May-06 16:32N 51°16' E 004°21'0 0.0
2015-May-06 15:31N 51°16' E 004°21'0 0.0
2015-May-06 14:31N 51°16' E 004°21'0 0.0
2015-May-06 13:33N 51°16' E 004°21'0 0.0
2015-May-06 12:33N 51°16' E 004°21'0 0.0
2015-May-06 11:29N 51°16' E 004°21'0 0.0
2015-May-06 10:32N 51°16' E 004°21'0 0.0
2015-May-06 09:32N 51°16' E 004°21'0 0.0
2015-May-06 08:31N 51°16' E 004°21'0 0.0
2015-May-06 07:31N 51°16' E 004°21'0 0.0
2015-May-06 06:33N 51°16' E 004°21'0 0.0
2015-May-06 05:30N 51°16' E 004°21'0 0.0
2015-May-06 04:32N 51°16' E 004°21'0 0.0
2015-May-06 03:32N 51°16' E 004°21'0 0.0
2015-May-06 02:23N 51°16' E 004°21'0 0.0
2015-May-06 01:31N 51°16' E 004°21'0 0.0
2015-May-06 00:31N 51°16' E 004°21'0 0.0
2015-May-05 23:33N 51°16' E 004°21'0 0.0
2015-May-05 22:30N 51°16' E 004°21'0 0.0
2015-May-05 21:29N 51°16' E 004°21'0 0.0
2015-May-05 20:32N 51°16' E 004°21'0 0.0
2015-May-05 19:32N 51°16' E 004°21'0 0.0
2015-May-05 18:28N 51°16' E 004°21'0 0.0
2015-May-05 17:31N 51°16' E 004°21'0 0.0
2015-May-05 16:30N 51°16' E 004°21'0 0.0
2015-May-05 15:33N 51°16' E 004°21'0 0.0
2015-May-05 14:32N 51°16' E 004°21'0 0.0
2015-May-05 13:32N 51°16' E 004°21'0 0.0
2015-May-05 12:31N 51°16' E 004°21'0 0.0
2015-May-05 11:31N 51°16' E 004°21'0 0.0
2015-May-05 10:31N 51°16' E 004°21'0 0.0
2015-May-05 09:27N 51°16' E 004°21'0 0.0
2015-May-05 08:27N 51°16' E 004°21'0 0.0
2015-May-05 07:29N 51°16' E 004°21'0 0.0
2015-May-05 06:32N 51°16' E 004°21'0 0.0
2015-May-05 05:28N 51°16' E 004°21'0 0.0
2015-May-05 04:31N 51°16' E 004°21'0 0.0
2015-May-05 03:25N 51°16' E 004°21'0 0.0
2015-May-05 02:33N 51°16' E 004°21'0 0.0
2015-May-05 01:30N 51°16' E 004°21'0 0.0
2015-May-05 00:30N 51°16' E 004°21'0 0.0
2015-May-04 23:32N 51°16' E 004°21'0 0.0
2015-May-04 22:31N 51°16' E 004°21'0 0.0
2015-May-04 21:31N 51°16' E 004°21'0 0.0
2015-May-04 20:31N 51°16' E 004°21'0 0.0
2015-May-04 19:30N 51°16' E 004°21'0 0.0
2015-May-04 18:33N 51°16' E 004°21'0 0.0
2015-May-04 17:32N 51°16' E 004°21'0 0.0
2015-May-04 16:32N 51°16' E 004°21'0 0.0
2015-May-04 15:25N 51°16' E 004°21'0 0.0
2015-May-04 14:31N 51°16' E 004°21'0 0.0
2015-May-04 13:28N 51°16' E 004°21'0 0.0
2015-May-04 12:33N 51°16' E 004°21'0 0.0
2015-May-04 11:33N 51°16' E 004°21'0 0.0
2015-May-04 10:28N 51°16' E 004°21'0 0.0
2015-May-04 09:32N 51°16' E 004°21'0 0.0
2015-May-04 08:25N 51°16' E 004°21'0 0.0
2015-May-04 07:31N 51°16' E 004°21'0 0.0
2015-May-04 06:34N 51°16' E 004°21'0 0.0
2015-May-04 05:33N 51°16' E 004°21'0 0.0
2015-May-04 04:33N 51°16' E 004°21'0 0.0
2015-May-04 03:32N 51°16' E 004°21'0 0.0
2015-May-04 02:29N 51°16' E 004°21'0 0.0
2015-May-04 01:31N 51°16' E 004°21'0 0.0
2015-May-04 00:31N 51°16' E 004°21'0 0.0
2015-May-03 23:34N 51°16' E 004°21'0 0.0
2015-May-03 22:30N 51°16' E 004°21'0 0.0
2015-May-03 21:33N 51°16' E 004°21'0 0.0
2015-May-03 20:32N 51°16' E 004°21'0 0.0
2015-May-03 19:32N 51°16' E 004°21'0 0.0
2015-May-03 18:28N 51°16' E 004°21'0 0.0
2015-May-03 17:30N 51°16' E 004°21'0 0.0
2015-May-03 16:34N 51°16' E 004°21'0 0.0
2015-May-03 15:30N 51°16' E 004°21'0 0.0
2015-May-03 14:33N 51°16' E 004°21'0 0.0
2015-May-03 13:26N 51°16' E 004°21'0 0.0
2015-May-03 12:32N 51°16' E 004°21'0 0.0
2015-May-03 11:31N 51°16' E 004°21'0 0.0
2015-May-03 10:31N 51°16' E 004°21'0 0.0
2015-May-03 09:30N 51°16' E 004°21'0 0.0
2015-May-03 08:33N 51°16' E 004°21'0 0.0
2015-May-03 07:33N 51°16' E 004°21'0 0.0
2015-May-03 06:32N 51°16' E 004°21'0 0.0
2015-May-03 05:32N 51°16' E 004°21'0 0.0
2015-May-03 04:32N 51°16' E 004°21'  
Track history (hours):
 
Tides and Currents Weather Stations Pressure Air Temp Water Temp Dewpoint Dewpoint Depression Visibility Wind Speed Wind Dir Waves Ship Positions

Maribel

Last reported at 2015-May-13 04:12 UTC. Time now 2015-May-22 22:16 UTC.
Position N 28°28' W 014°53'.
Warning: this ship's position is 9 days out of date.

Length 227 m; draft 12.9 m.

Type: Tanker. MMSI: 257872000.

Date/timePositionNaut miles runAvg speedWind from/ knotsBaromVisibWave heightAir tempDewpointWater temp
2015-May-13 04:12N 28°28' W 014°53'913.7
2015-May-13 03:33N 28°36' W 014°51'1613.7
2015-May-13 02:22N 28°52' W 014°47'1113.4
2015-May-13 01:32N 29°03' W 014°43'1313.2
2015-May-13 00:33N 29°16' W 014°40'1413.0
2015-May-12 23:31N 29°29' W 014°36'1313.2
2015-May-12 22:33N 29°41' W 014°33'1513.1
2015-May-12 21:26N 29°56' W 014°29'1513.3
2015-May-12 20:20N 30°10' W 014°25'1013.2
2015-May-12 19:33N 30°20' W 014°23'1413.0
2015-May-12 18:30N 30°33' W 014°19'1313.3
2015-May-12 17:33N 30°46' W 014°15'1313.1
2015-May-12 16:33N 30°58' W 014°12'1313.2
2015-May-12 15:33N 31°11' W 014°08'1313.4
2015-May-12 14:33N 31°24' W 014°05'1313.4
2015-May-12 13:33N 31°37' W 014°01'1313.4
2015-May-12 12:33N 31°50' W 013°57'1313.5
2015-May-12 11:33N 32°03' W 013°54'1513.8
2015-May-12 10:27N 32°18' W 013°50'1213.6
2015-May-12 09:33N 32°30' W 013°46'1313.1
2015-May-12 08:33N 32°43' W 013°43'1513.2
2015-May-12 07:26N 32°57' W 013°38'1213.1
2015-May-12 06:33N 33°08' W 013°35'1313.1
2015-May-12 05:33N 33°21' W 013°32'1313.0
2015-May-12 04:33N 33°34' W 013°28'1313.0
2015-May-12 03:33N 33°46' W 013°24'1313.2
2015-May-12 02:32N 33°59' W 013°21'1313.2
2015-May-12 01:33N 34°12' W 013°17'1312.9
2015-May-12 00:33N 34°25' W 013°13'1312.8
2015-May-11 23:32N 34°37' W 013°10'1713.0
2015-May-11 22:13N 34°54' W 013°05'913.0
2015-May-11 21:31N 35°03' W 013°02'1212.7
2015-May-11 20:33N 35°15' W 012°59'1313.0
2015-May-11 19:33N 35°27' W 012°55'3812.8
2015-May-11 16:33N 36°05' W 012°44'1413.2
2015-May-11 15:31N 36°18' W 012°40'1313.4
2015-May-11 14:33N 36°31' W 012°37'1313.3
2015-May-11 13:33N 36°44' W 012°33'60 8.6
2015-May-11 06:33N 37°42' W 012°15'1212.3
2015-May-11 05:33N 37°54' W 012°12'1312.6
2015-May-11 04:32N 38°07' W 012°08'1313.1
2015-May-11 03:33N 38°19' W 012°04'1313.1
2015-May-11 02:33N 38°32' W 012°00'1313.3
2015-May-11 01:33N 38°45' W 011°56'1313.0
2015-May-11 00:33N 38°58' W 011°52'1513.5
2015-May-10 23:26N 39°12' W 011°48'1213.5
2015-May-10 22:33N 39°24' W 011°44'1313.0
2015-May-10 21:33N 39°36' W 011°40'1312.7
2015-May-10 20:33N 39°49' W 011°36'54912.3
2015-May-09 00:04N 48°10' W 006°25'17511.7
2015-May-08 09:09N 49°59' W 002°57'711.6
2015-May-08 08:33N 50°01' W 002°46'2512.5
2015-May-08 06:33N 50°08' W 002°09'3215.3
2015-May-08 04:28N 50°16' W 001°21'1516.2
2015-May-08 03:33N 50°20' W 000°58'1514.7
2015-May-08 02:32N 50°24' W 000°35'2712.9
2015-May-08 00:26N 50°31' E 000°06'1011.2
2015-May-07 23:34N 50°34' E 000°20'1110.6
2015-May-07 22:33N 50°37' E 000°36'1211.9
2015-May-07 21:33N 50°44' E 000°51'1413.4
2015-May-07 20:33N 50°53' E 001°08'1414.0
2015-May-07 19:33N 51°02' E 001°24'1313.1
2015-May-07 18:33N 51°11' E 001°40'1111.5
2015-May-07 17:33N 51°19' E 001°52'9 8.8
2015-May-07 16:33N 51°25' E 002°02'1111.2
2015-May-07 15:33N 51°20' E 002°18'10 9.8
2015-May-07 14:33N 51°23' E 002°34'9 9.2
2015-May-07 13:33N 51°22' E 002°48'1111.0
2015-May-07 12:33N 51°24' E 003°05'1111.1
2015-May-07 11:33N 51°25' E 003°23'9 9.1
2015-May-07 10:33N 51°26' E 003°38'1110.6
2015-May-07 09:33N 51°21' E 003°52'8 7.8
2015-May-07 08:33N 51°22' E 004°05'8 7.9
2015-May-07 07:33N 51°21' E 004°17'0 0.1
2015-May-07 06:32N 51°21' E 004°17'0 0.4
2015-May-07 05:32N 51°21' E 004°18'5 4.5
2015-May-07 04:31N 51°16' E 004°21'0 0.0
2015-May-07 03:33N 51°16' E 004°21'0 0.0
2015-May-07 02:33N 51°16' E 004°21'0 0.0
2015-May-07 01:26N 51°16' E 004°21'0 0.0
2015-May-07 00:32N 51°16' E 004°21'0 0.0
2015-May-06 23:32N 51°16' E 004°21'0 0.0
2015-May-06 22:31N 51°16' E 004°21'0 0.0
2015-May-06 21:31N 51°16' E 004°21'0 0.0
2015-May-06 20:30N 51°16' E 004°21'0 0.0
2015-May-06 19:27N 51°16' E 004°21'0 0.0
2015-May-06 18:32N 51°16' E 004°21'0 0.0
2015-May-06 17:32N 51°16' E 004°21'0 0.0
2015-May-06 16:32N 51°16' E 004°21'0 0.0
2015-May-06 15:31N 51°16' E 004°21'0 0.0
2015-May-06 14:31N 51°16' E 004°21'0 0.0
2015-May-06 13:33N 51°16' E 004°21'0 0.0
2015-May-06 12:33N 51°16' E 004°21'0 0.0
2015-May-06 11:29N 51°16' E 004°21'0 0.0
2015-May-06 10:32N 51°16' E 004°21'0 0.0
2015-May-06 09:32N 51°16' E 004°21'0 0.0
2015-May-06 08:31N 51°16' E 004°21'0 0.0
2015-May-06 07:31N 51°16' E 004°21'0 0.0
2015-May-06 06:33N 51°16' E 004°21'0 0.0
2015-May-06 05:30N 51°16' E 004°21'0 0.0
2015-May-06 04:32N 51°16' E 004°21'0 0.0
2015-May-06 03:32N 51°16' E 004°21'0 0.0
2015-May-06 02:23N 51°16' E 004°21'0 0.0
2015-May-06 01:31N 51°16' E 004°21'0 0.0
2015-May-06 00:31N 51°16' E 004°21'0 0.0
2015-May-05 23:33N 51°16' E 004°21'0 0.0
2015-May-05 22:30N 51°16' E 004°21'0 0.0
2015-May-05 21:29N 51°16' E 004°21'0 0.0
2015-May-05 20:32N 51°16' E 004°21'0 0.0
2015-May-05 19:32N 51°16' E 004°21'0 0.0
2015-May-05 18:28N 51°16' E 004°21'0 0.0
2015-May-05 17:31N 51°16' E 004°21'0 0.0
2015-May-05 16:30N 51°16' E 004°21'0 0.0
2015-May-05 15:33N 51°16' E 004°21'0 0.0
2015-May-05 14:32N 51°16' E 004°21'0 0.0
2015-May-05 13:32N 51°16' E 004°21'0 0.0
2015-May-05 12:31N 51°16' E 004°21'0 0.0
2015-May-05 11:31N 51°16' E 004°21'0 0.0
2015-May-05 10:31N 51°16' E 004°21'0 0.0
2015-May-05 09:27N 51°16' E 004°21'0 0.0
2015-May-05 08:27N 51°16' E 004°21'0 0.0
2015-May-05 07:29N 51°16' E 004°21'0 0.0
2015-May-05 06:32N 51°16' E 004°21'0 0.0
2015-May-05 05:28N 51°16' E 004°21'0 0.0
2015-May-05 04:31N 51°16' E 004°21'0 0.0
2015-May-05 03:25N 51°16' E 004°21'0 0.0
2015-May-05 02:33N 51°16' E 004°21'0 0.0
2015-May-05 01:30N 51°16' E 004°21'0 0.0
2015-May-05 00:30N 51°16' E 004°21'0 0.0
2015-May-04 23:32N 51°16' E 004°21'0 0.0
2015-May-04 22:31N 51°16' E 004°21'0 0.0
2015-May-04 21:31N 51°16' E 004°21'0 0.0
2015-May-04 20:31N 51°16' E 004°21'0 0.0
2015-May-04 19:30N 51°16' E 004°21'0 0.0
2015-May-04 18:33N 51°16' E 004°21'0 0.0
2015-May-04 17:32N 51°16' E 004°21'0 0.0
2015-May-04 16:32N 51°16' E 004°21'0 0.0
2015-May-04 15:25N 51°16' E 004°21'0 0.0
2015-May-04 14:31N 51°16' E 004°21'0 0.0
2015-May-04 13:28N 51°16' E 004°21'0 0.0
2015-May-04 12:33N 51°16' E 004°21'0 0.0
2015-May-04 11:33N 51°16' E 004°21'0 0.0
2015-May-04 10:28N 51°16' E 004°21'0 0.0
2015-May-04 09:32N 51°16' E 004°21'0 0.0
2015-May-04 08:25N 51°16' E 004°21'0 0.0
2015-May-04 07:31N 51°16' E 004°21'0 0.0
2015-May-04 06:34N 51°16' E 004°21'0 0.0
2015-May-04 05:33N 51°16' E 004°21'0 0.0
2015-May-04 04:33N 51°16' E 004°21'0 0.0
2015-May-04 03:32N 51°16' E 004°21'0 0.0
2015-May-04 02:29N 51°16' E 004°21'0 0.0
2015-May-04 01:31N 51°16' E 004°21'0 0.0
2015-May-04 00:31N 51°16' E 004°21'0 0.0
2015-May-03 23:34N 51°16' E 004°21'0 0.0
2015-May-03 22:30N 51°16' E 004°21'0 0.0
2015-May-03 21:33N 51°16' E 004°21'0 0.0
2015-May-03 20:32N 51°16' E 004°21'0 0.0
2015-May-03 19:32N 51°16' E 004°21'0 0.0
2015-May-03 18:28N 51°16' E 004°21'0 0.0
2015-May-03 17:30N 51°16' E 004°21'0 0.0
2015-May-03 16:34N 51°16' E 004°21'0 0.0
2015-May-03 15:30N 51°16' E 004°21'0 0.0
2015-May-03 14:33N 51°16' E 004°21'0 0.0
2015-May-03 13:26N 51°16' E 004°21'0 0.0
2015-May-03 12:32N 51°16' E 004°21'0 0.0
2015-May-03 11:31N 51°16' E 004°21'0 0.0
2015-May-03 10:31N 51°16' E 004°21'0 0.0
2015-May-03 09:30N 51°16' E 004°21'0 0.0
2015-May-03 08:33N 51°16' E 004°21'0 0.0
2015-May-03 07:33N 51°16' E 004°21'0 0.0
2015-May-03 06:32N 51°16' E 004°21'0 0.0
2015-May-03 05:32N 51°16' E 004°21'0 0.0
2015-May-03 04:32N 51°16' E 004°21'  

Dump ship's entire track history